Time;durP1;ratioP1;P1;durP2;ratioP2;P2;SDS_P1;SDS_P2;PMS_P1;PMS_P2;Temp;Humidity;BMP_temperature;BMP_pressure;BME280_temperature;BME280_humidity;BME280_pressure;Samples;Min_cycle;Max_cycle;Signal;HPM_P1;HPM_P2
2023/06/22 00:00:29;;;;;;;6.10;3.40;;;;;;;19.60;78.35;101819.47;4865517;29;20030;-59
2023/06/22 00:02:54;;;;;;;6.85;3.28;;;;;;;19.57;78.60;101826.53;4845669;29;20048;-59
2023/06/22 00:05:20;;;;;;;7.22;3.00;;;;;;;19.50;78.24;101817.69;4859934;29;20035;-59
2023/06/22 00:07:45;;;;;;;5.78;3.40;;;;;;;19.44;78.78;101807.97;4856760;29;20045;-59
2023/06/22 00:10:10;;;;;;;4.72;3.35;;;;;;;19.40;78.58;101805.31;4854793;29;20048;-59
2023/06/22 00:12:36;;;;;;;5.97;3.40;;;;;;;19.36;78.31;101808.84;4853092;29;20120;-59
2023/06/22 00:15:01;;;;;;;7.38;3.55;;;;;;;19.32;78.73;101814.97;4851570;29;20518;-59
2023/06/22 00:17:26;;;;;;;5.32;3.40;;;;;;;19.32;78.14;101817.63;4848273;29;20617;-59
2023/06/22 00:19:53;;;;;;;5.97;3.80;;;;;;;19.27;77.94;101810.56;4854125;29;20034;-59
2023/06/22 00:22:27;;;;;;;7.07;4.03;;;;;;;19.31;78.07;101813.25;4856986;29;20025;-59
2023/06/22 00:24:53;;;;;;;7.30;4.22;;;;;;;19.32;77.19;101813.25;4855410;29;20030;-59
2023/06/22 00:27:18;;;;;;;7.30;5.15;;;;;;;19.33;76.35;101816.75;4857006;29;20116;-59
2023/06/22 00:29:43;;;;;;;9.48;6.22;;;;;;;19.19;76.83;101816.69;4860819;29;20112;-59
2023/06/22 00:32:09;;;;;;;7.50;5.40;;;;;;;19.08;78.09;101814.03;4860623;29;20044;-59
2023/06/22 00:34:34;;;;;;;7.03;5.10;;;;;;;19.00;79.15;101811.38;4856247;29;20104;-59
2023/06/22 00:36:59;;;;;;;6.53;4.40;;;;;;;18.94;79.66;101816.59;4849171;29;20030;-59
2023/06/22 00:39:24;;;;;;;6.40;4.72;;;;;;;18.94;79.20;101816.59;4860775;29;20033;-59
2023/06/22 00:41:50;;;;;;;8.13;5.72;;;;;;;18.93;78.24;101810.44;4859441;29;20438;-59
2023/06/22 00:44:15;;;;;;;8.35;5.95;;;;;;;18.99;78.01;101811.34;4860259;29;20094;-58
2023/06/22 00:46:40;;;;;;;8.52;6.10;;;;;;;19.01;77.53;101801.69;4862925;29;20072;-58
2023/06/22 00:49:06;;;;;;;7.25;5.78;;;;;;;19.02;77.84;101804.31;4861913;29;20119;-59
2023/06/22 00:51:32;;;;;;;7.80;5.43;;;;;;;18.92;79.38;101802.53;4860479;29;20458;-59
2023/06/22 00:53:58;;;;;;;6.75;4.70;;;;;;;18.74;80.06;101803.28;4856843;29;20048;-59
2023/06/22 00:56:24;;;;;;;6.60;5.07;;;;;;;18.67;80.43;101804.09;4857913;29;20025;-59
2023/06/22 00:58:52;;;;;;;7.30;5.70;;;;;;;18.72;80.12;101810.31;4854428;29;20029;-59
2023/06/22 01:01:17;;;;;;;7.97;6.33;;;;;;;18.73;80.16;101804.16;4858450;29;20411;-59
2023/06/22 01:03:43;;;;;;;8.55;6.25;;;;;;;18.71;80.54;101795.34;4856768;29;20069;-59
2023/06/22 01:06:26;;;;;;;8.52;6.00;;;;;;;18.67;79.37;101793.53;4858893;29;20121;-59
2023/06/22 01:09:02;;;;;;;9.02;5.97;;;;;;;18.67;79.72;101801.47;4855831;29;20034;-58
2023/06/22 01:11:45;;;;;;;7.35;5.93;;;;;;;18.67;79.76;101796.19;4856904;29;20393;-59
2023/06/22 01:14:23;;;;;;;10.68;6.40;;;;;;;18.66;80.11;101794.44;4856503;29;20044;-59
2023/06/22 01:16:53;;;;;;;7.38;5.93;;;;;;;18.62;81.27;101797.94;4843206;29;20061;-58
2023/06/22 01:19:34;;;;;;;;;;;;;;;18.70;78.18;101790.94;4854312;29;20041;-59
2023/06/22 01:22:01;;;;;;;7.90;5.45;;;;;;;18.61;81.00;101799.72;4847427;29;19920;-59
2023/06/22 01:24:39;;;;;;;9.35;5.70;;;;;;;18.49;81.65;101800.50;4852779;29;20116;-59
2023/06/22 01:27:36;;;;;;;8.68;5.70;;;;;;;18.42;81.34;101796.03;4851307;29;20120;-58
2023/06/22 01:30:05;;;;;;;7.88;5.72;;;;;;;18.44;81.89;101804.88;4845676;29;20041;-59
2023/06/22 01:32:32;;;;;;;8.43;5.78;;;;;;;18.47;81.89;101793.47;4859396;29;20041;-59
2023/06/22 01:35:00;;;;;;;8.07;5.70;;;;;;;18.51;81.59;101795.22;4859605;29;20033;-59
2023/06/22 01:37:27;;;;;;;7.93;5.88;;;;;;;18.52;81.67;101803.16;4859697;29;20049;-58
2023/06/22 01:39:54;;;;;;;9.25;7.10;;;;;;;18.42;82.91;101796.03;4859749;29;20033;-59
2023/06/22 01:42:20;;;;;;;8.68;6.90;;;;;;;18.25;83.89;101799.47;4858285;29;20034;-58
2023/06/22 01:44:46;;;;;;;8.98;6.57;;;;;;;18.12;85.07;101789.72;4856670;29;20041;-58
2023/06/22 01:47:13;;;;;;;8.38;7.00;;;;;;;18.12;84.21;101786.16;4858347;29;20416;-59
2023/06/22 01:49:40;;;;;;;8.15;6.80;;;;;;;18.12;84.63;101787.06;4859273;29;20049;-58
2023/06/22 01:52:07;;;;;;;8.52;6.70;;;;;;;18.13;84.55;101783.53;4859287;29;20026;-58
2023/06/22 01:54:32;;;;;;;9.25;6.80;;;;;;;18.13;84.77;101780.91;4855587;29;20076;-58
2023/06/22 01:56:57;;;;;;;9.82;6.78;;;;;;;18.15;84.92;101780.94;4856061;29;20061;-59
2023/06/22 01:59:32;;;;;;;9.02;6.80;;;;;;;18.18;84.33;101779.19;4858637;29;20037;-58
2023/06/22 02:02:03;;;;;;;26.40;7.72;;;;;;;18.21;84.50;101783.63;4856933;29;20025;-58
2023/06/22 02:04:54;;;;;;;9.23;7.00;;;;;;;18.16;83.92;101780.94;4844271;29;20457;-59
2023/06/22 02:07:23;;;;;;;10.18;7.22;;;;;;;18.08;84.97;101774.72;4855636;29;20093;-59
2023/06/22 02:09:52;;;;;;;10.57;7.43;;;;;;;18.08;85.33;101777.38;4854102;29;20093;-58
2023/06/22 02:12:21;;;;;;;8.45;6.93;;;;;;;18.11;84.88;101779.16;4851028;29;20112;-58
2023/06/22 02:14:46;;;;;;;;;;;;;;;18.16;81.89;101783.59;4851372;29;20037;-59
2023/06/22 02:17:12;;;;;;;10.55;7.47;;;;;;;18.13;84.42;101777.38;4851872;29;19917;-58
2023/06/22 02:19:38;;;;;;;12.55;8.20;;;;;;;17.98;85.60;101778.16;4853310;29;20033;-59
2023/06/22 02:22:04;;;;;;;9.70;7.95;;;;;;;17.75;87.38;101784.09;4856019;29;20134;-59
2023/06/22 02:24:31;;;;;;;9.75;7.57;;;;;;;17.61;88.21;101772.53;4846782;29;20073;-59
2023/06/22 02:26:58;;;;;;;10.18;7.80;;;;;;;17.51;89.10;101784.72;4854614;29;20055;-58
2023/06/22 02:29:24;;;;;;;11.70;8.43;;;;;;;17.50;89.11;101778.59;4848534;29;20044;-58
2023/06/22 02:31:49;;;;;;;12.32;7.35;;;;;;;17.55;88.84;101782.16;4854714;29;20025;-58
2023/06/22 02:34:18;;;;;;;11.93;8.50;;;;;;;17.63;88.54;101770.81;4843699;29;20082;-58
2023/06/22 02:36:50;;;;;;;12.27;8.52;;;;;;;17.68;87.85;101758.53;4855413;29;20033;-58
2023/06/22 02:39:22;;;;;;;11.30;9.05;;;;;;;17.72;86.94;101755.06;4854291;29;20033;-59
2023/06/22 02:41:48;;;;;;;12.13;10.00;;;;;;;17.76;87.65;101743.69;4855558;29;20037;-59
2023/06/22 02:44:13;;;;;;;10.85;8.38;;;;;;;17.76;87.18;101756.88;4858227;29;20394;-58
2023/06/22 02:46:38;;;;;;;11.15;8.80;;;;;;;17.75;87.26;101760.34;4858818;29;20037;-58
2023/06/22 02:49:04;;;;;;;11.60;8.27;;;;;;;17.73;87.05;101756.84;4858359;29;20128;-58
2023/06/22 02:51:33;;;;;;;10.80;8.20;;;;;;;17.71;86.81;101763.84;4857476;29;20554;-59
2023/06/22 02:53:59;;;;;;;11.02;7.72;;;;;;;17.72;86.36;101750.66;4861183;29;20048;-58
2023/06/22 02:56:25;;;;;;;10.48;7.90;;;;;;;17.72;86.55;101755.94;4861471;29;20032;-58
2023/06/22 02:58:51;;;;;;;11.02;8.50;;;;;;;17.72;86.51;101755.06;4858420;29;20093;-59
2023/06/22 03:01:16;;;;;;;11.27;8.90;;;;;;;17.69;86.30;101745.38;4855463;29;20033;-58
2023/06/22 03:03:41;;;;;;;10.52;9.07;;;;;;;17.72;86.39;101747.16;4857319;29;20089;-59
2023/06/22 03:06:07;;;;;;;12.50;9.20;;;;;;;17.74;86.30;101740.13;4854229;29;20033;-58
2023/06/22 03:08:32;;;;;;;10.65;9.27;;;;;;;17.78;86.16;101744.56;4856054;29;20035;-58
2023/06/22 03:10:58;;;;;;;13.60;10.63;;;;;;;17.75;85.78;101725.22;4852038;29;20033;-58
2023/06/22 03:13:23;;;;;;;16.55;11.82;;;;;;;17.69;85.96;101729.56;4855092;29;20029;-59
2023/06/22 03:15:49;;;;;;;17.17;12.30;;;;;;;17.72;86.00;101732.22;4854590;29;20041;-58
2023/06/22 03:18:15;;;;;;;14.15;12.02;;;;;;;17.74;85.99;101732.22;4853503;29;20120;-58
2023/06/22 03:20:41;;;;;;;13.82;12.02;;;;;;;17.72;86.26;101733.97;4857240;29;20030;-58
2023/06/22 03:23:06;;;;;;;15.13;11.93;;;;;;;17.64;86.27;101726.00;4854330;29;20052;-59
2023/06/22 03:25:33;;;;;;;16.35;11.90;;;;;;;17.64;86.39;101718.09;4860537;29;20398;-58
2023/06/22 03:27:58;;;;;;;14.70;11.90;;;;;;;17.59;87.04;101716.31;4857694;29;20033;-58
2023/06/22 03:30:24;;;;;;;15.70;12.82;;;;;;;17.59;87.30;101716.31;4857010;29;20070;-58
2023/06/22 03:32:49;;;;;;;13.88;11.98;;;;;;;17.56;87.22;101723.28;4853444;29;20037;-59
2023/06/22 03:35:14;;;;;;;15.80;11.60;;;;;;;17.56;87.23;101727.69;4860171;29;20033;-58
2023/06/22 03:37:40;;;;;;;15.50;11.82;;;;;;;17.57;87.06;101721.56;4850329;29;20038;-58
2023/06/22 03:40:06;;;;;;;15.38;11.85;;;;;;;17.57;87.32;101721.56;4846946;29;20436;-58
2023/06/22 03:42:33;;;;;;;15.55;11.98;;;;;;;17.56;87.54;101718.03;4855438;29;20109;-58
2023/06/22 03:44:58;;;;;;;14.88;12.43;;;;;;;17.52;87.76;101716.25;4855226;29;20537;-58
2023/06/22 03:47:23;;;;;;;16.17;12.27;;;;;;;17.50;88.04;101723.25;4857992;29;20037;-58
2023/06/22 03:49:49;;;;;;;16.33;12.55;;;;;;;17.51;87.90;101716.22;4857434;29;20230;-58
2023/06/22 03:52:14;;;;;;;16.35;12.68;;;;;;;17.49;87.68;101716.19;4860325;29;20031;-58
2023/06/22 03:54:39;;;;;;;16.05;12.57;;;;;;;17.47;88.33;101709.19;4860029;29;20485;-58
2023/06/22 03:57:05;;;;;;;16.17;12.35;;;;;;;17.47;88.11;101711.81;4859656;29;20400;-59
2023/06/22 03:59:32;;;;;;;15.30;12.18;;;;;;;17.44;88.65;101707.38;4850758;29;20056;-58
2023/06/22 04:01:57;;;;;;;15.45;12.93;;;;;;;17.40;88.88;101702.97;4856191;29;20025;-59
2023/06/22 04:04:23;;;;;;;17.17;13.35;;;;;;;17.40;89.11;101705.59;4860351;29;20121;-58
2023/06/22 04:06:48;;;;;;;16.92;13.30;;;;;;;17.37;88.55;101708.19;4859491;29;20033;-58
2023/06/22 04:09:13;;;;;;;16.88;13.05;;;;;;;17.34;89.50;101702.91;4856626;29;20057;-58
2023/06/22 04:11:38;;;;;;;17.10;14.23;;;;;;;17.36;90.07;101699.41;4852529;29;20033;-58
2023/06/22 04:14:04;;;;;;;16.70;12.90;;;;;;;17.37;89.88;101705.56;4857405;29;20818;-58
2023/06/22 04:16:29;;;;;;;17.88;13.45;;;;;;;17.40;89.61;101705.59;4855224;29;20485;-59
2023/06/22 04:18:54;;;;;;;18.73;14.63;;;;;;;17.40;90.07;101710.00;4852265;29;20554;-58
2023/06/22 04:21:20;;;;;;;18.73;14.02;;;;;;;17.38;90.70;101707.34;4856940;29;20035;-59
2023/06/22 04:23:46;;;;;;;17.27;13.90;;;;;;;17.40;90.71;101710.88;4853702;29;20029;-59
2023/06/22 04:26:12;;;;;;;22.00;15.18;;;;;;;17.38;90.90;101708.22;4853892;29;20073;-58
2023/06/22 04:28:37;;;;;;;18.52;14.45;;;;;;;17.40;90.76;101710.00;4849444;29;20124;-59
2023/06/22 04:31:02;;;;;;;20.10;15.15;;;;;;;17.36;91.10;101714.31;4857934;29;20525;-58
2023/06/22 04:33:29;;;;;;;19.10;14.65;;;;;;;17.37;90.93;101711.72;4849432;29;20025;-59
2023/06/22 04:35:56;;;;;;;20.20;15.70;;;;;;;17.40;91.53;101718.75;4855726;29;20025;-59
2023/06/22 04:38:22;;;;;;;19.20;14.63;;;;;;;17.43;91.62;101716.16;4852671;29;20166;-58
2023/06/22 04:40:47;;;;;;;22.77;16.58;;;;;;;17.45;91.96;101714.44;4850355;29;20120;-58
2023/06/22 04:43:13;;;;;;;20.95;15.80;;;;;;;17.50;92.76;101707.44;4846872;29;20434;-59
2023/06/22 04:45:38;;;;;;;21.88;15.77;;;;;;;17.51;92.17;101711.84;4856690;29;20084;-59
2023/06/22 04:48:05;;;;;;;18.85;14.05;;;;;;;17.53;91.11;101710.09;4850230;29;20458;-59
2023/06/22 04:50:30;;;;;;;20.02;15.27;;;;;;;17.52;92.18;101713.63;4847366;29;20037;-59
2023/06/22 04:52:55;;;;;;;21.02;15.57;;;;;;;17.56;93.33;101711.88;4857168;29;20379;-59
2023/06/22 04:55:21;;;;;;;22.08;15.65;;;;;;;17.59;93.74;101718.94;4856318;29;20485;-59
2023/06/22 04:57:50;;;;;;;19.65;15.27;;;;;;;17.67;93.86;101712.84;4847206;29;20083;-59
2023/06/22 05:00:21;;;;;;;19.00;15.35;;;;;;;17.71;94.11;101706.75;4857473;29;20029;-59
2023/06/22 05:02:47;;;;;;;21.15;15.27;;;;;;;17.79;93.28;101711.19;4849522;29;20029;-59
2023/06/22 05:05:13;;;;;;;19.90;15.70;;;;;;;17.87;94.05;101717.38;4857945;29;20048;-59
2023/06/22 05:07:42;;;;;;;18.67;14.52;;;;;;;17.93;92.73;101711.31;4859977;29;20104;-59
2023/06/22 05:10:09;;;;;;;20.85;15.95;;;;;;;17.98;93.16;101710.47;4857692;29;20098;-59
2023/06/22 05:12:35;;;;;;;21.10;15.88;;;;;;;18.05;92.37;101704.38;4858751;29;20025;-59
2023/06/22 05:15:01;;;;;;;22.77;17.25;;;;;;;18.13;93.41;101711.44;4856247;29;20029;-59
2023/06/22 05:17:27;;;;;;;21.88;17.23;;;;;;;18.14;91.92;101711.44;4852060;29;20450;-59
2023/06/22 05:19:52;;;;;;;23.83;18.17;;;;;;;18.18;93.49;101715.88;4856494;29;20036;-59
2023/06/22 05:22:18;;;;;;;23.25;17.92;;;;;;;18.21;93.67;101715.91;4857788;29;20154;-59
2023/06/22 05:24:43;;;;;;;23.92;17.95;;;;;;;18.23;93.11;101711.53;4858456;29;20033;-59
2023/06/22 05:27:10;;;;;;;24.48;18.00;;;;;;;18.25;92.73;101717.69;4856634;29;20033;-59
2023/06/22 05:29:36;;;;;;;26.10;18.98;;;;;;;18.25;92.60;101720.31;4854847;29;20073;-59
2023/06/22 05:32:02;;;;;;;24.92;18.70;;;;;;;18.29;93.23;101717.69;4856645;29;20037;-59
2023/06/22 05:34:27;;;;;;;24.25;18.52;;;;;;;18.28;88.60;101714.19;4845929;29;20515;-59
2023/06/22 05:36:52;;;;;;;23.85;18.98;;;;;;;18.34;91.64;101708.06;4857189;29;20036;-59
2023/06/22 05:39:17;;;;;;;23.58;18.75;;;;;;;18.36;92.32;101704.53;4854222;29;20053;-59
2023/06/22 05:41:44;;;;;;;27.10;19.80;;;;;;;18.38;91.91;101704.56;4856805;29;20556;-59
2023/06/22 05:44:09;;;;;;;26.30;20.05;;;;;;;18.41;91.86;101702.81;4849337;29;20449;-59
2023/06/22 05:46:35;;;;;;;24.63;19.45;;;;;;;18.41;92.26;101689.63;4852775;29;20061;-59
2023/06/22 05:49:00;;;;;;;27.45;19.85;;;;;;;18.47;92.33;101699.31;4856361;29;20124;-59
2023/06/22 05:51:25;;;;;;;26.58;20.23;;;;;;;18.52;92.27;101696.69;4850375;29;20029;-59
2023/06/22 05:53:51;;;;;;;27.88;20.65;;;;;;;18.56;92.96;101709.91;4856534;29;20043;-59
2023/06/22 05:56:17;;;;;;;27.15;20.90;;;;;;;18.59;90.53;101703.78;4856513;29;20029;-59
2023/06/22 05:58:42;;;;;;;26.67;21.05;;;;;;;18.67;93.23;101709.06;4857095;29;20045;-59
2023/06/22 06:01:07;;;;;;;28.17;22.60;;;;;;;18.71;94.17;101710.84;4852164;29;20112;-59
2023/06/22 06:03:33;;;;;;;33.13;23.00;;;;;;;18.76;94.72;101711.75;4850602;29;21423;-59
2023/06/22 06:05:58;;;;;;;30.77;22.55;;;;;;;18.80;93.95;101710.91;4856840;29;20061;-59
2023/06/22 06:08:24;;;;;;;32.28;23.10;;;;;;;18.86;94.13;101710.94;4851032;29;20404;-59
2023/06/22 06:10:49;;;;;;;31.15;23.65;;;;;;;18.93;93.96;101710.09;4851672;29;20041;-59
2023/06/22 06:13:14;;;;;;;28.45;21.23;;;;;;;19.02;93.29;101697.78;4851525;29;20045;-59
2023/06/22 06:15:39;;;;;;;30.63;22.55;;;;;;;19.11;93.36;101696.03;4857264;29;20033;-59
2023/06/22 06:18:06;;;;;;;29.85;21.77;;;;;;;19.18;92.84;101696.94;4853915;29;20029;-59
2023/06/22 06:20:32;;;;;;;30.50;22.30;;;;;;;19.25;92.99;101689.91;4858249;29;20029;-59
2023/06/22 06:22:57;;;;;;;30.20;22.63;;;;;;;19.31;92.59;101689.03;4857139;29;20029;-59
2023/06/22 06:25:23;;;;;;;27.20;20.60;;;;;;;19.35;91.39;101689.03;4857998;29;20120;-59
2023/06/22 06:27:50;;;;;;;30.52;23.23;;;;;;;19.39;93.09;101701.38;4852742;29;20391;-59
2023/06/22 06:30:17;;;;;;;27.60;21.88;;;;;;;19.44;92.27;101696.97;4858770;29;20029;-59
2023/06/22 06:32:45;;;;;;;29.15;22.38;;;;;;;19.53;91.81;101701.38;4858615;29;20064;-59
2023/06/22 06:35:11;;;;;;;35.30;23.67;;;;;;;19.57;90.55;101692.56;4850095;29;20038;-59
2023/06/22 06:37:38;;;;;;;29.98;22.38;;;;;;;19.63;90.18;101695.19;4868212;29;20073;-59
2023/06/22 06:40:10;;;;;;;35.47;23.58;;;;;;;19.69;90.88;101694.31;4870291;29;20109;-59
2023/06/22 06:42:56;;;;;;;30.00;23.40;;;;;;;19.75;90.09;101689.00;4862836;29;20437;-60
2023/06/22 06:45:23;;;;;;;31.02;23.25;;;;;;;19.78;89.86;101686.41;4867228;29;20084;-59
2023/06/22 06:47:49;;;;;;;32.30;23.20;;;;;;;19.84;89.47;101696.09;4861523;29;20029;-59
2023/06/22 06:50:15;;;;;;;34.58;24.42;;;;;;;19.90;88.98;101701.38;4857516;29;20045;-60
2023/06/22 06:52:41;;;;;;;28.80;22.13;;;;;;;19.97;88.64;101695.19;4855866;29;20358;-59
2023/06/22 06:55:08;;;;;;;34.15;25.55;;;;;;;20.02;89.17;101699.59;4859689;29;20041;-59
2023/06/22 06:57:34;;;;;;;28.95;21.00;;;;;;;20.05;86.47;101691.66;4858015;29;20030;-60
2023/06/22 06:59:59;;;;;;;31.00;24.30;;;;;;;20.14;90.76;101699.56;4858548;29;20450;-59
2023/06/22 07:02:27;;;;;;;34.22;24.35;;;;;;;20.18;88.98;101697.81;4858255;29;20050;-59
2023/06/22 07:04:52;;;;;;;32.03;24.83;;;;;;;20.20;88.58;101699.53;4858518;29;20508;-59
2023/06/22 07:07:18;;;;;;;35.30;26.02;;;;;;;20.25;89.56;101692.50;4856160;29;20045;-60
2023/06/22 07:09:43;;;;;;;36.95;25.30;;;;;;;20.28;88.44;101694.25;4858348;29;20025;-60
2023/06/22 07:12:09;;;;;;;35.45;25.58;;;;;;;20.33;89.53;101693.34;4863315;29;20029;-59
2023/06/22 07:14:34;;;;;;;35.00;25.80;;;;;;;20.39;88.79;101688.91;4851869;29;20056;-60
2023/06/22 07:16:59;;;;;;;34.95;25.45;;;;;;;20.41;89.27;101689.78;4856632;29;20520;-59
2023/06/22 07:19:26;;;;;;;36.40;26.75;;;;;;;20.41;88.24;101687.16;4856334;29;20139;-60
2023/06/22 07:21:52;;;;;;;34.75;26.15;;;;;;;20.44;89.35;101681.84;4858208;29;20033;-60
2023/06/22 07:24:19;;;;;;;37.15;26.95;;;;;;;20.47;88.74;101688.00;4856469;29;20036;-60
2023/06/22 07:26:45;;;;;;;36.30;27.35;;;;;;;20.47;88.71;101685.34;4846745;29;20041;-59
2023/06/22 07:29:11;;;;;;;36.97;28.00;;;;;;;20.46;87.81;101691.50;4848031;29;20030;-60
2023/06/22 07:31:37;;;;;;;36.22;27.38;;;;;;;20.44;85.41;101687.13;4852198;29;20018;-59
2023/06/22 07:34:02;;;;;;;37.35;27.88;;;;;;;20.43;87.88;101688.88;4850533;29;20037;-60
2023/06/22 07:36:30;;;;;;;39.70;27.50;;;;;;;20.43;89.00;101680.06;4850666;29;20124;-59
2023/06/22 07:38:55;;;;;;;35.90;25.77;;;;;;;20.47;88.22;101687.13;4853118;29;20037;-59
2023/06/22 07:41:20;;;;;;;46.42;29.52;;;;;;;20.49;89.29;101672.09;4856366;29;20056;-60
2023/06/22 07:43:45;;;;;;;37.55;27.45;;;;;;;20.50;90.46;101668.56;4852336;29;20041;-59
2023/06/22 07:46:11;;;;;;;40.83;27.10;;;;;;;20.50;90.13;101661.50;4868749;29;20033;-60
2023/06/22 07:48:37;;;;;;;35.35;26.02;;;;;;;20.50;90.91;101661.50;4856919;29;20061;-60
2023/06/22 07:51:03;;;;;;;34.17;24.55;;;;;;;20.56;91.55;101650.00;4854039;29;20065;-60
2023/06/22 07:53:28;;;;;;;41.42;30.00;;;;;;;20.54;88.14;101641.19;4856041;29;20158;-60
2023/06/22 07:55:53;;;;;;;41.30;28.80;;;;;;;20.58;91.27;101637.66;4862876;29;20068;-60
2023/06/22 07:58:20;;;;;;;43.40;30.95;;;;;;;20.60;91.49;101627.91;4854063;29;20294;-60
2023/06/22 08:00:45;;;;;;;42.03;30.35;;;;;;;20.61;91.99;101621.75;4854865;29;20040;-60
2023/06/22 08:03:11;;;;;;;39.63;28.60;;;;;;;20.64;92.45;101616.41;4854487;29;20042;-60
2023/06/22 08:05:36;;;;;;;39.95;28.88;;;;;;;20.72;93.43;101620.81;4857971;29;20116;-60
2023/06/22 08:08:01;;;;;;;41.38;29.50;;;;;;;20.76;92.52;101604.03;4861222;29;20022;-60
2023/06/22 08:10:27;;;;;;;41.22;31.60;;;;;;;20.82;93.86;101606.63;4859544;29;20090;-60
2023/06/22 08:12:52;;;;;;;41.50;30.05;;;;;;;20.88;92.50;101593.34;4854513;29;20508;-60
2023/06/22 08:15:18;;;;;;;39.08;29.92;;;;;;;20.92;91.66;101588.91;4859812;29;20026;-60
2023/06/22 08:17:44;;;;;;;35.17;23.55;;;;;;;20.97;89.75;101587.97;4859428;29;20532;-59
2023/06/22 08:20:13;;;;;;;31.23;23.20;;;;;;;21.04;90.27;101585.28;4863945;29;20029;-60
2023/06/22 08:22:39;;;;;;;;;;;;;;;21.12;89.14;101580.81;4861902;29;22793;-59
2023/06/22 08:25:06;;;;;;;37.67;27.95;;;;;;;21.12;91.25;101584.31;4854956;29;19920;-59
2023/06/22 08:27:35;;;;;;;42.85;29.35;;;;;;;21.10;87.51;101577.28;4853230;29;20041;-59
2023/06/22 08:30:01;;;;;;;36.55;27.02;;;;;;;21.14;90.20;101584.31;4850505;29;20492;-59
2023/06/22 08:32:32;;;;;;;38.70;27.65;;;;;;;21.17;90.09;101587.81;4853990;29;20037;-59
2023/06/22 08:34:57;;;;;;;34.38;25.13;;;;;;;21.25;88.56;101584.22;4849136;29;21214;-59
2023/06/22 08:37:30;;;;;;;32.97;23.52;;;;;;;21.25;89.13;101590.41;4850591;29;20041;-59
2023/06/22 08:39:59;;;;;;;33.00;24.38;;;;;;;21.25;87.78;101585.09;4853533;29;20478;-59
2023/06/22 08:42:25;;;;;;;31.98;23.13;;;;;;;21.29;88.08;101585.94;4855030;29;20498;-59
2023/06/22 08:44:51;;;;;;;32.83;24.08;;;;;;;21.29;85.18;101591.22;4869452;29;20032;-59
2023/06/22 08:47:16;;;;;;;31.35;23.40;;;;;;;21.31;85.71;101586.81;4849245;29;20521;-59
2023/06/22 08:49:41;;;;;;;28.25;20.63;;;;;;;21.35;84.95;101584.13;4856032;29;20092;-60
2023/06/22 08:52:07;;;;;;;26.97;20.77;;;;;;;21.33;84.80;101585.03;4851791;29;20648;-59
2023/06/22 08:54:34;;;;;;;32.55;22.65;;;;;;;21.28;84.15;101586.84;4856749;29;20325;-59
2023/06/22 08:57:02;;;;;;;33.08;23.67;;;;;;;21.28;84.98;101587.72;4848778;29;20641;-59
2023/06/22 08:59:28;;;;;;;32.47;24.17;;;;;;;21.30;85.68;101590.34;4853369;29;20033;-59
2023/06/22 09:01:53;;;;;;;32.60;23.65;;;;;;;21.30;85.78;101583.28;4856136;29;20490;-59
2023/06/22 09:04:18;;;;;;;30.65;22.65;;;;;;;21.31;84.83;101582.38;4853588;29;20041;-59
2023/06/22 09:06:45;;;;;;;28.33;21.48;;;;;;;21.31;82.64;101571.78;4852046;29;20037;-59
2023/06/22 09:09:13;;;;;;;22.73;17.00;;;;;;;21.33;81.62;101572.66;4849610;29;20477;-59
2023/06/22 09:11:38;;;;;;;27.20;19.88;;;;;;;21.37;83.24;101570.84;4854788;29;20041;-60
2023/06/22 09:14:04;;;;;;;26.30;20.13;;;;;;;21.38;82.50;101567.31;4854997;29;20036;-59
2023/06/22 09:16:29;;;;;;;24.02;17.63;;;;;;;21.41;83.22;101566.41;4856933;29;20033;-59
2023/06/22 09:18:55;;;;;;;28.48;20.92;;;;;;;21.41;83.77;101561.97;4849302;29;20429;-59
2023/06/22 09:21:20;;;;;;;27.15;20.35;;;;;;;21.44;82.58;101556.63;4853788;29;20021;-59
2023/06/22 09:23:50;;;;;;;25.73;19.35;;;;;;;21.48;80.46;101550.41;4854499;29;20072;-59
2023/06/22 09:26:15;;;;;;;26.65;19.83;;;;;;;21.52;82.50;101554.81;4856977;29;20033;-60
2023/06/22 09:28:40;;;;;;;29.45;19.63;;;;;;;21.58;81.36;101556.53;4854961;29;20724;-60
2023/06/22 09:31:06;;;;;;;26.27;20.25;;;;;;;21.56;80.94;101560.09;4857383;29;20489;-59
2023/06/22 09:33:32;;;;;;;26.45;18.30;;;;;;;21.59;82.00;101560.06;4854956;29;20525;-59
2023/06/22 09:35:57;;;;;;;23.85;19.38;;;;;;;21.60;76.01;101559.16;4853120;29;20033;-60
2023/06/22 09:38:23;;;;;;;19.85;14.82;;;;;;;21.65;79.55;101560.88;4858362;29;20049;-59
2023/06/22 09:40:48;;;;;;;23.35;18.60;;;;;;;21.65;78.48;101560.88;4856682;29;20129;-60
2023/06/22 09:43:13;;;;;;;23.67;18.20;;;;;;;21.68;79.22;101566.16;4858045;29;20033;-59
2023/06/22 09:45:39;;;;;;;26.65;18.75;;;;;;;21.68;79.92;101560.84;4859630;29;20109;-59
2023/06/22 09:48:04;;;;;;;22.50;16.92;;;;;;;21.74;79.03;101557.25;4859424;29;20041;-59
2023/06/22 09:50:29;;;;;;;25.25;18.05;;;;;;;21.76;80.01;101549.25;4857887;29;20058;-59
2023/06/22 09:52:55;;;;;;;23.27;18.60;;;;;;;21.73;78.48;101555.47;4854752;29;20037;-59
2023/06/22 09:55:21;;;;;;;25.05;18.85;;;;;;;21.74;77.75;101549.28;4855039;29;20485;-59
2023/06/22 09:57:46;;;;;;;23.70;17.70;;;;;;;21.78;78.27;101553.63;4853599;29;20038;-59
2023/06/22 10:00:13;;;;;;;24.80;18.08;;;;;;;21.79;79.57;101547.44;4855609;29;20088;-61
2023/06/22 10:02:39;;;;;;;26.02;19.85;;;;;;;21.80;78.21;101546.56;4864569;29;20025;-60
2023/06/22 10:05:05;;;;;;;24.52;18.23;;;;;;;21.81;78.79;101550.97;4854077;29;20541;-60
2023/06/22 10:07:30;;;;;;;23.75;17.73;;;;;;;21.84;79.38;101539.41;4849499;29;20038;-61
2023/06/22 10:09:55;;;;;;;19.67;15.63;;;;;;;21.85;77.41;101551.78;4852931;29;20405;-61
2023/06/22 10:12:21;;;;;;;23.87;17.73;;;;;;;21.83;77.23;101548.28;4859097;29;20504;-60
2023/06/22 10:14:46;;;;;;;22.35;17.50;;;;;;;21.82;75.91;101551.84;4856326;29;20325;-60
2023/06/22 10:17:11;;;;;;;24.08;17.98;;;;;;;21.84;76.17;101555.34;4857147;29;20144;-60
2023/06/22 10:19:38;;;;;;;22.45;16.98;;;;;;;21.86;78.34;101549.13;4859594;29;20036;-60
2023/06/22 10:22:05;;;;;;;22.77;16.38;;;;;;;21.86;77.40;101548.25;4857662;29;20032;-60
2023/06/22 10:24:30;;;;;;;22.85;17.65;;;;;;;21.88;78.37;101535.84;4853505;29;20025;-60
2023/06/22 10:26:55;;;;;;;23.97;18.33;;;;;;;21.89;79.30;101537.59;4855659;29;20406;-60
2023/06/22 10:29:20;;;;;;;29.92;19.92;;;;;;;21.91;78.40;101545.53;4854650;29;20300;-61
2023/06/22 10:31:46;;;;;;;27.25;20.70;;;;;;;21.94;77.57;101540.19;4851972;29;20030;-59
2023/06/22 10:34:11;;;;;;;23.30;17.33;;;;;;;21.99;78.45;101548.97;4855103;29;20085;-60
2023/06/22 10:36:36;;;;;;;26.15;19.92;;;;;;;21.98;76.88;101541.91;4857277;29;20554;-60
2023/06/22 10:39:02;;;;;;;29.73;20.98;;;;;;;22.00;78.13;101554.28;4849267;29;20029;-60
2023/06/22 10:41:29;;;;;;;28.00;21.15;;;;;;;21.99;76.20;101565.78;4855977;29;20021;-60
2023/06/22 10:43:55;;;;;;;23.35;17.48;;;;;;;21.98;75.22;101568.44;4851791;29;20056;-60
2023/06/22 10:46:20;;;;;;;27.60;22.13;;;;;;;21.96;78.80;101571.13;4855147;29;20478;-60
2023/06/22 10:48:46;;;;;;;29.52;21.58;;;;;;;21.91;79.55;101580.03;4849841;29;20183;-61
2023/06/22 10:51:11;;;;;;;31.55;22.60;;;;;;;21.91;83.11;101580.91;4855380;29;20029;-60
2023/06/22 10:53:36;;;;;;;29.60;22.58;;;;;;;21.88;83.96;101583.59;4854238;29;20041;-60
2023/06/22 10:56:02;;;;;;;28.55;22.60;;;;;;;21.84;85.65;101581.88;4852818;29;20108;-62
2023/06/22 10:58:27;;;;;;;32.03;24.58;;;;;;;21.75;86.79;101581.97;4852302;29;21364;-61
2023/06/22 11:00:52;;;;;;;30.90;24.20;;;;;;;21.68;88.26;101592.66;4852875;29;20045;-62
2023/06/22 11:03:17;;;;;;;31.52;24.27;;;;;;;21.61;88.73;101585.66;4851106;29;20033;-62
2023/06/22 11:05:43;;;;;;;32.35;25.08;;;;;;;21.56;90.85;101590.13;4848477;29;20143;-61
2023/06/22 11:08:08;;;;;;;34.55;26.10;;;;;;;21.56;92.85;101584.81;4857496;29;20037;-60
2023/06/22 11:10:33;;;;;;;36.65;28.52;;;;;;;21.48;92.68;101584.00;4856689;29;20056;-61